createdAt,value
2023-04-15T00:01:40.182Z,3.78
2023-04-15T00:05:46.833Z,7.32
2023-04-15T00:09:55.219Z,5.78
2023-04-15T00:14:01.938Z,3.70
2023-04-15T00:18:09.113Z,2.72
2023-04-15T00:22:16.049Z,2.65
2023-04-15T00:26:22.760Z,3.22
2023-04-15T00:30:29.485Z,8.15
2023-04-15T00:34:36.702Z,3.70
2023-04-15T00:38:43.365Z,6.32
2023-04-15T00:42:50.088Z,4.43
2023-04-15T00:46:57.609Z,1.70
2023-04-15T00:51:04.518Z,2.42
2023-04-15T00:55:11.255Z,5.63
2023-04-15T00:59:18.936Z,3.13
2023-04-15T01:03:25.952Z,4.93
2023-04-15T01:07:32.829Z,2.42
2023-04-15T01:11:39.905Z,2.58
2023-04-15T01:15:46.675Z,4.18
2023-04-15T01:19:55.532Z,5.82
2023-04-15T01:24:04.633Z,3.83
2023-04-15T01:28:11.396Z,4.65
2023-04-15T01:32:18.063Z,6.20
2023-04-15T01:36:24.734Z,3.53
2023-04-15T01:40:31.441Z,5.43
2023-04-15T01:44:38.075Z,3.10
2023-04-15T01:48:44.800Z,5.00
2023-04-15T01:52:52.072Z,5.07
2023-04-15T01:56:58.866Z,2.77
2023-04-15T02:01:05.723Z,2.93
2023-04-15T02:05:12.562Z,4.10
2023-04-15T02:09:19.256Z,2.57
2023-04-15T02:13:25.886Z,5.55
2023-04-15T02:17:35.674Z,8.57
2023-04-15T02:21:42.458Z,4.83
2023-04-15T02:25:53.447Z,6.47
2023-04-15T02:30:01.142Z,3.63
2023-04-15T02:34:08.229Z,3.72
2023-04-15T02:38:16.816Z,7.87
2023-04-15T02:42:23.477Z,10.70
2023-04-15T02:46:30.178Z,6.63
2023-04-15T02:50:39.869Z,4.90
2023-04-15T02:54:46.615Z,5.53
2023-04-15T02:58:56.146Z,7.87
2023-04-15T03:03:04.853Z,6.73
2023-04-15T03:07:11.752Z,4.70
2023-04-15T03:11:19.362Z,3.53
2023-04-15T03:15:26.133Z,5.93
2023-04-15T03:19:32.861Z,6.47
2023-04-15T03:23:39.559Z,3.93
2023-04-15T03:27:46.328Z,6.57
2023-04-15T03:31:53.647Z,7.17
2023-04-15T03:36:00.320Z,7.50
2023-04-15T03:40:07.755Z,5.73
2023-04-15T03:44:14.454Z,7.60
2023-04-15T03:48:21.144Z,7.80
2023-04-15T03:52:27.869Z,7.97
2023-04-15T03:56:34.602Z,9.83
2023-04-15T04:00:41.544Z,7.93
2023-04-15T04:04:48.449Z,9.00
2023-04-15T04:08:55.907Z,9.37
2023-04-15T04:13:02.558Z,5.77
2023-04-15T04:17:09.507Z,9.33
2023-04-15T04:21:16.617Z,8.93
2023-04-15T04:25:23.280Z,8.20
2023-04-15T04:29:30.087Z,8.60
2023-04-15T04:33:36.799Z,6.00
2023-04-15T04:37:43.622Z,8.03
2023-04-15T04:41:52.155Z,6.50
2023-04-15T04:45:58.876Z,11.90
2023-04-15T04:50:06.766Z,7.63
2023-04-15T04:54:13.536Z,7.47
2023-04-15T04:58:20.603Z,7.63
2023-04-15T05:02:27.664Z,7.60
2023-04-15T05:06:36.504Z,7.80
2023-04-15T05:10:43.196Z,11.10
2023-04-15T05:14:49.871Z,8.50
2023-04-15T05:18:56.722Z,9.47
2023-04-15T05:23:03.630Z,8.67
2023-04-15T05:27:11.612Z,10.63
2023-04-15T05:31:18.386Z,10.57
2023-04-15T05:35:25.143Z,7.53
2023-04-15T05:39:32.736Z,6.90
2023-04-15T05:43:39.412Z,9.80
2023-04-15T05:47:46.857Z,8.07
2023-04-15T05:51:53.569Z,11.13
2023-04-15T05:56:00.602Z,11.48
2023-04-15T06:00:07.874Z,11.07
2023-04-15T06:04:14.693Z,9.18
2023-04-15T06:08:21.556Z,8.40
2023-04-15T06:12:28.714Z,13.27
2023-04-15T06:16:36.665Z,10.05
2023-04-15T06:20:43.479Z,9.30
2023-04-15T06:24:51.326Z,7.95
2023-04-15T06:28:58.044Z,11.05
2023-04-15T06:33:06.301Z,10.57
2023-04-15T06:37:16.232Z,10.75
2023-04-15T06:41:23.017Z,12.17
2023-04-15T06:45:29.739Z,10.75
2023-04-15T06:49:36.463Z,11.52
2023-04-15T06:53:43.883Z,10.48
2023-04-15T06:57:50.813Z,12.00
2023-04-15T07:01:57.491Z,15.13
2023-04-15T07:06:06.585Z,13.27
2023-04-15T07:10:14.921Z,13.15
2023-04-15T07:14:21.648Z,15.40
2023-04-15T07:18:28.342Z,13.43
2023-04-15T07:22:35.269Z,14.05
2023-04-15T07:26:41.929Z,10.85
2023-04-15T07:30:48.973Z,8.93
2023-04-15T07:34:55.682Z,7.53
2023-04-15T07:39:04.106Z,8.45
2023-04-15T07:43:11.159Z,6.60
2023-04-15T07:47:17.842Z,8.93
2023-04-15T07:51:24.842Z,5.45
2023-04-15T07:55:31.732Z,5.55
2023-04-15T07:59:38.409Z,6.68
2023-04-15T08:03:45.391Z,4.03
2023-04-15T08:07:52.183Z,4.47
2023-04-15T08:11:58.892Z,5.45
2023-04-15T08:16:26.966Z,5.45
2023-04-15T08:20:33.924Z,5.20
2023-04-15T08:24:40.992Z,4.40
2023-04-15T08:28:48.019Z,4.10
2023-04-15T08:32:54.816Z,4.07
2023-04-15T08:37:01.612Z,5.20
2023-04-15T08:41:17.906Z,5.43
2023-04-15T08:45:25.198Z,4.28
2023-04-15T08:49:32.983Z,9.27
2023-04-15T08:53:39.824Z,6.78
2023-04-15T08:57:46.558Z,4.90
2023-04-15T09:01:55.322Z,8.13
2023-04-15T09:06:05.031Z,8.15
2023-04-15T09:10:11.895Z,12.02
2023-04-15T09:14:18.548Z,5.57
2023-04-15T09:18:29.852Z,5.55
2023-04-15T09:22:38.089Z,6.18
2023-04-15T09:26:44.847Z,5.95
2023-04-15T09:30:55.897Z,4.32
2023-04-15T09:35:11.938Z,2.38
2023-04-15T09:39:18.710Z,3.00
2023-04-15T09:43:39.998Z,2.53
2023-04-15T09:47:47.044Z,2.28
2023-04-15T09:52:05.616Z,6.25
2023-04-15T09:56:13.447Z,3.78
2023-04-15T10:00:20.154Z,4.80
2023-04-15T10:04:28.486Z,2.22
2023-04-15T10:08:35.571Z,3.33
2023-04-15T10:12:42.971Z,3.67
2023-04-15T10:16:51.091Z,1.63
2023-04-15T10:20:58.833Z,2.42
2023-04-15T10:25:06.268Z,2.03
2023-04-15T10:29:13.926Z,2.65
2023-04-15T10:33:23.059Z,3.40
2023-04-15T10:37:37.608Z,3.78
2023-04-15T10:41:44.357Z,1.83
2023-04-15T10:45:51.369Z,1.90
2023-04-15T10:50:00.360Z,1.23
2023-04-15T10:54:13.136Z,1.90
2023-04-15T10:58:24.968Z,3.10
2023-04-15T11:03:05.012Z,2.13
2023-04-15T11:07:11.791Z,3.80
2023-04-15T11:11:18.440Z,3.17
2023-04-15T11:15:42.391Z,1.27
2023-04-15T11:19:49.329Z,3.70
2023-04-15T11:23:56.005Z,2.33
2023-04-15T11:28:03.917Z,0.95
2023-04-15T11:32:10.716Z,1.85
2023-04-15T11:36:17.815Z,2.40
2023-04-15T11:40:27.114Z,2.67
2023-04-15T11:44:33.826Z,1.55
2023-04-15T11:48:44.829Z,0.60
2023-04-15T11:52:59.579Z,3.80
2023-04-15T11:57:07.069Z,0.82
2023-04-15T12:01:14.022Z,2.15
2023-04-15T12:05:20.818Z,2.22
2023-04-15T12:09:27.897Z,4.82
2023-04-15T12:13:34.565Z,1.05
2023-04-15T12:17:51.774Z,0.68
2023-04-15T12:22:04.189Z,1.85
2023-04-15T12:26:12.596Z,0.50
2023-04-15T12:30:19.291Z,1.45
2023-04-15T12:34:27.765Z,0.40
2023-04-15T12:38:34.478Z,1.40
2023-04-15T12:42:41.125Z,1.05
2023-04-15T12:46:47.841Z,0.32
2023-04-15T12:50:54.493Z,0.20
2023-04-15T12:55:01.128Z,1.50
2023-04-15T12:59:07.761Z,2.08
2023-04-15T13:03:14.589Z,1.50
2023-04-15T13:07:21.609Z,0.98
2023-04-15T13:11:30.934Z,1.90
2023-04-15T13:15:38.097Z,0.35
2023-04-15T13:19:44.760Z,0.43
2023-04-15T13:23:51.795Z,1.70
2023-04-15T13:27:58.463Z,1.42
2023-04-15T13:32:05.385Z,0.47
2023-04-15T13:36:12.221Z,4.28
2023-04-15T13:40:20.652Z,0.30
2023-04-15T13:44:27.331Z,1.85
2023-04-15T13:48:34.042Z,0.28
2023-04-15T13:52:40.788Z,0.50
2023-04-15T13:56:47.634Z,2.33
2023-04-15T14:00:54.432Z,2.33
2023-04-15T14:05:01.154Z,4.55
2023-04-15T14:09:07.878Z,3.15
2023-04-15T14:13:15.136Z,0.77
2023-04-15T14:17:21.931Z,1.35
2023-04-15T14:21:28.883Z,2.00
2023-04-15T14:25:35.696Z,3.40
2023-04-15T14:29:42.683Z,1.95
2023-04-15T14:33:49.342Z,1.40
2023-04-15T14:37:56.409Z,4.32
2023-04-15T14:42:03.146Z,2.80
2023-04-15T14:46:11.485Z,2.42
2023-04-15T14:50:18.233Z,2.15
2023-04-15T14:54:24.904Z,3.50
2023-04-15T14:58:32.775Z,8.13
2023-04-15T15:02:40.422Z,3.03
2023-04-15T15:06:49.137Z,3.83
2023-04-15T15:10:55.941Z,1.50
2023-04-15T15:15:15.749Z,3.55
2023-04-15T15:19:26.386Z,4.55
2023-04-15T15:23:33.102Z,5.22
2023-04-15T15:27:39.796Z,2.50
2023-04-15T15:31:46.618Z,3.22
2023-04-15T15:35:53.630Z,5.03
2023-04-15T15:40:00.877Z,4.28
2023-04-15T15:44:07.532Z,6.47
2023-04-15T15:48:14.172Z,8.93
2023-04-15T15:52:21.333Z,8.25
2023-04-15T15:56:28.014Z,6.55
2023-04-15T16:00:34.821Z,2.35
2023-04-15T16:04:43.197Z,3.33
2023-04-15T16:08:49.941Z,4.32
2023-04-15T16:12:56.637Z,11.93
2023-04-15T16:17:03.307Z,5.05
2023-04-15T16:21:09.986Z,5.20
2023-04-15T16:25:16.664Z,4.57
2023-04-15T16:29:23.297Z,12.48
2023-04-15T16:33:30.011Z,8.73
2023-04-15T16:37:36.707Z,4.68
2023-04-15T16:41:43.389Z,7.15
2023-04-15T16:45:51.414Z,10.65
2023-04-15T16:49:58.425Z,6.53
2023-04-15T16:54:05.186Z,12.38
2023-04-15T16:58:11.915Z,13.68
2023-04-15T17:02:18.775Z,10.27
2023-04-15T17:06:26.704Z,11.52
2023-04-15T17:10:33.373Z,7.07
2023-04-15T17:14:40.273Z,8.32
2023-04-15T17:18:47.470Z,5.53
2023-04-15T17:22:54.193Z,10.18
2023-04-15T17:27:02.659Z,5.55
2023-04-15T17:31:11.002Z,5.72
2023-04-15T17:35:18.180Z,10.55
2023-04-15T17:39:24.894Z,6.15
2023-04-15T17:43:32.163Z,7.75
2023-04-15T17:47:38.883Z,4.72
2023-04-15T17:51:46.665Z,6.50
2023-04-15T17:55:53.778Z,8.85
2023-04-15T18:00:00.497Z,4.35
2023-04-15T18:04:07.435Z,6.65
2023-04-15T18:08:14.720Z,6.93
2023-04-15T18:12:21.464Z,4.38
2023-04-15T18:16:28.167Z,10.25
2023-04-15T18:20:34.903Z,6.70
2023-04-15T18:24:43.023Z,2.90
2023-04-15T18:28:50.075Z,5.53
2023-04-15T18:32:56.795Z,3.33
2023-04-15T18:37:03.698Z,5.38
2023-04-15T18:41:10.765Z,4.00
2023-04-15T18:45:17.472Z,9.32
2023-04-15T18:49:24.211Z,7.28
2023-04-15T18:53:31.100Z,5.10
2023-04-15T18:57:42.493Z,8.63
2023-04-15T19:01:51.643Z,8.77
2023-04-15T19:05:58.612Z,4.32
2023-04-15T19:10:06.139Z,11.23
2023-04-15T19:14:12.884Z,4.07
2023-04-15T19:18:19.547Z,5.40
2023-04-15T19:22:28.970Z,7.18
2023-04-15T19:26:36.820Z,14.65
2023-04-15T19:30:43.507Z,12.52
2023-04-15T19:34:50.908Z,9.15
2023-04-15T19:38:58.980Z,13.00
2023-04-15T19:43:05.657Z,5.30
2023-04-15T19:47:12.357Z,5.88
2023-04-15T19:51:19.165Z,2.38
2023-04-15T19:55:25.998Z,5.80
2023-04-15T19:59:32.731Z,7.78
2023-04-15T20:03:39.644Z,6.43
2023-04-15T20:07:48.363Z,3.85
2023-04-15T20:12:46.123Z,3.88
2023-04-15T20:16:21.841Z,3.53
2023-04-15T20:20:29.648Z,4.40
2023-04-15T20:24:36.701Z,4.57
2023-04-15T20:28:43.372Z,8.85
2023-04-15T20:32:50.154Z,13.80
2023-04-15T20:36:56.914Z,11.68
2023-04-15T20:41:03.551Z,7.05
2023-04-15T20:45:10.672Z,6.25
2023-04-15T20:49:17.487Z,6.00
2023-04-15T20:53:24.158Z,15.00
2023-04-15T20:57:30.930Z,14.15
2023-04-15T21:01:37.679Z,9.77
2023-04-15T21:05:44.384Z,11.13
2023-04-15T21:09:51.178Z,10.35
2023-04-15T21:13:57.982Z,9.20
2023-04-15T21:18:04.635Z,13.05
2023-04-15T21:22:11.324Z,10.15
2023-04-15T21:26:18.310Z,16.20
2023-04-15T21:30:25.546Z,14.23
2023-04-15T21:34:32.257Z,13.07
2023-04-15T21:38:38.933Z,9.10
2023-04-15T21:42:45.727Z,20.77
2023-04-15T21:46:52.433Z,9.10
2023-04-15T21:51:02.413Z,15.20
2023-04-15T21:55:09.472Z,12.45
2023-04-15T21:59:16.096Z,15.45
2023-04-15T22:03:23.383Z,16.05
2023-04-15T22:07:30.308Z,16.95
2023-04-15T22:11:37.129Z,19.17
2023-04-15T22:15:43.840Z,27.58
2023-04-15T22:19:50.485Z,18.77
2023-04-15T22:24:32.107Z,26.27
2023-04-15T22:28:23.805Z,26.38
2023-04-15T22:32:30.505Z,19.65
2023-04-15T22:36:37.162Z,31.95
2023-04-15T22:40:46.345Z,25.52
2023-04-15T22:44:53.002Z,23.30
2023-04-15T22:48:59.632Z,22.25
2023-04-15T22:53:06.450Z,20.92
2023-04-15T22:57:13.087Z,25.15
2023-04-15T23:01:20.919Z,29.63
2023-04-15T23:05:27.864Z,20.73
2023-04-15T23:09:34.686Z,29.88
2023-04-15T23:13:41.369Z,34.10
2023-04-15T23:17:48.033Z,32.90
2023-04-15T23:21:54.834Z,27.95
2023-04-15T23:26:03.799Z,26.42
2023-04-15T23:30:10.720Z,30.60
2023-04-15T23:34:17.364Z,34.08
2023-04-15T23:38:24.013Z,29.02
2023-04-15T23:42:30.649Z,25.65
2023-04-15T23:46:37.328Z,29.23
2023-04-15T23:50:44.099Z,32.70
2023-04-15T23:54:50.787Z,28.02
2023-04-15T23:58:57.468Z,30.67
